createdAt,value
2023-03-01T00:00:47.567Z,79.05
2023-03-01T00:03:08.234Z,79.15
2023-03-01T00:05:20.866Z,79.17
2023-03-01T00:07:33.362Z,79.23
2023-03-01T00:09:46.852Z,79.25
2023-03-01T00:11:59.457Z,79.31
2023-03-01T00:14:12.294Z,79.36
2023-03-01T00:16:29.096Z,79.16
2023-03-01T00:18:42.045Z,79.07
2023-03-01T00:20:56.055Z,79.30
2023-03-01T00:23:08.581Z,79.21
2023-03-01T00:25:21.106Z,78.99
2023-03-01T00:27:33.658Z,78.82
2023-03-01T00:29:46.423Z,78.93
2023-03-01T00:31:59.037Z,78.99
2023-03-01T00:34:11.671Z,79.13
2023-03-01T00:36:30.114Z,79.45
2023-03-01T00:38:45.203Z,79.70
2023-03-01T00:41:05.301Z,79.37
2023-03-01T00:43:17.828Z,79.51
2023-03-01T00:45:32.134Z,79.53
2023-03-01T00:47:44.996Z,79.76
2023-03-01T00:49:57.551Z,79.97
2023-03-01T00:52:10.061Z,79.63
2023-03-01T00:54:22.625Z,80.09
2023-03-01T00:56:35.508Z,79.77
2023-03-01T00:58:48.449Z,79.92
2023-03-01T01:01:01.241Z,80.08
2023-03-01T01:03:13.816Z,80.08
2023-03-01T01:05:26.390Z,80.42
2023-03-01T01:07:39.059Z,80.05
2023-03-01T01:09:51.758Z,80.44
2023-03-01T01:12:04.752Z,80.32
2023-03-01T01:14:18.347Z,80.08
2023-03-01T01:16:31.265Z,79.98
2023-03-01T01:18:44.558Z,80.11
2023-03-01T01:20:57.202Z,80.55
2023-03-01T01:23:09.788Z,80.07
2023-03-01T01:25:22.512Z,80.57
2023-03-01T01:27:35.194Z,80.58
2023-03-01T01:29:47.790Z,80.62
2023-03-01T01:32:00.396Z,80.40
2023-03-01T01:34:19.732Z,80.56
2023-03-01T01:36:33.380Z,80.59
2023-03-01T01:38:46.095Z,80.64
2023-03-01T01:41:00.115Z,80.69
2023-03-01T01:43:26.908Z,80.92
2023-03-01T01:45:39.775Z,80.43
2023-03-01T01:47:55.773Z,80.21
2023-03-01T01:50:17.145Z,80.34
2023-03-01T01:52:36.776Z,80.42
2023-03-01T01:54:57.914Z,80.37
2023-03-01T01:57:15.760Z,80.60
2023-03-01T01:59:29.757Z,80.36
2023-03-01T02:01:42.445Z,80.61
2023-03-01T02:03:55.096Z,80.45
2023-03-01T02:06:16.666Z,80.58
2023-03-01T02:08:31.831Z,80.39
2023-03-01T02:10:46.136Z,80.60
2023-03-01T02:12:58.916Z,81.13
2023-03-01T02:15:11.501Z,81.10
2023-03-01T02:17:24.450Z,80.62
2023-03-01T02:19:48.859Z,80.86
2023-03-01T02:22:19.182Z,80.93
2023-03-01T02:24:55.425Z,80.48
2023-03-01T02:27:08.086Z,80.86
2023-03-01T02:29:21.595Z,80.80
2023-03-01T02:31:43.245Z,80.83
2023-03-01T02:33:56.840Z,80.71
2023-03-01T02:36:14.952Z,80.94
2023-03-01T02:38:28.743Z,80.95
2023-03-01T02:40:41.713Z,81.60
2023-03-01T02:42:58.282Z,80.78
2023-03-01T02:45:11.685Z,81.35
2023-03-01T02:47:24.297Z,80.91
2023-03-01T02:49:38.257Z,80.50
2023-03-01T02:52:36.393Z,80.86
2023-03-01T02:55:02.067Z,80.67
2023-03-01T02:57:15.769Z,80.74
2023-03-01T02:59:32.607Z,81.16
2023-03-01T03:01:46.533Z,80.84
2023-03-01T03:04:01.423Z,81.31
2023-03-01T03:06:14.487Z,80.94
2023-03-01T03:08:27.064Z,81.07
2023-03-01T03:10:41.752Z,81.20
2023-03-01T03:13:03.464Z,81.14
2023-03-01T03:15:16.173Z,80.87
2023-03-01T03:17:28.762Z,81.22
2023-03-01T03:19:41.270Z,81.29
2023-03-01T03:21:53.860Z,81.08
2023-03-01T03:24:06.688Z,81.45
2023-03-01T03:26:19.268Z,80.58
2023-03-01T03:28:33.287Z,81.04
2023-03-01T03:30:46.130Z,81.06
2023-03-01T03:33:00.298Z,80.79
2023-03-01T03:35:12.830Z,81.02
2023-03-01T03:37:43.791Z,80.87
2023-03-01T03:39:56.352Z,80.76
2023-03-01T03:42:08.869Z,81.23
2023-03-01T03:44:21.886Z,81.13
2023-03-01T03:46:34.805Z,81.37
2023-03-01T03:48:47.678Z,81.25
2023-03-01T03:51:00.541Z,81.11
2023-03-01T03:53:13.387Z,81.01
2023-03-01T03:55:30.952Z,81.32
2023-03-01T03:57:43.569Z,81.43
2023-03-01T03:59:56.171Z,81.56
2023-03-01T04:02:09.801Z,81.38
2023-03-01T04:04:22.373Z,81.73
2023-03-01T04:06:35.014Z,81.50
2023-03-01T04:08:47.607Z,81.42
2023-03-01T04:11:25.319Z,81.48
2023-03-01T04:13:37.966Z,80.90
2023-03-01T04:15:55.330Z,81.07
2023-03-01T04:18:15.678Z,81.34
2023-03-01T04:20:30.775Z,80.97
2023-03-01T04:22:43.332Z,81.22
2023-03-01T04:24:56.223Z,81.39
2023-03-01T04:27:08.732Z,81.18
2023-03-01T04:29:21.240Z,81.49
2023-03-01T04:31:35.075Z,81.35
2023-03-01T04:33:49.958Z,81.37
2023-03-01T04:36:06.352Z,81.47
2023-03-01T04:38:20.230Z,81.44
2023-03-01T04:40:33.472Z,81.03
2023-03-01T04:42:45.992Z,81.43
2023-03-01T04:44:58.839Z,81.59
2023-03-01T04:47:12.534Z,81.71
2023-03-01T04:49:25.140Z,81.88
2023-03-01T04:51:37.705Z,82.09
2023-03-01T04:53:50.486Z,82.27
2023-03-01T04:56:03.344Z,81.55
2023-03-01T04:58:15.870Z,81.98
2023-03-01T05:00:28.439Z,81.83
2023-03-01T05:02:41.036Z,82.16
2023-03-01T05:04:53.673Z,81.98
2023-03-01T05:07:06.300Z,82.34
2023-03-01T05:09:18.880Z,82.35
2023-03-01T05:11:34.761Z,82.12
2023-03-01T05:13:47.349Z,82.00
2023-03-01T05:16:01.734Z,82.20
2023-03-01T05:18:14.491Z,82.09
2023-03-01T05:20:29.656Z,82.46
2023-03-01T05:22:42.306Z,82.09
2023-03-01T05:24:55.041Z,82.71
2023-03-01T05:27:07.654Z,81.89
2023-03-01T05:29:25.820Z,82.46
2023-03-01T05:31:39.076Z,82.44
2023-03-01T05:33:51.574Z,82.61
2023-03-01T05:36:04.655Z,82.56
2023-03-01T05:38:17.485Z,82.24
2023-03-01T05:40:30.206Z,83.04
2023-03-01T05:42:51.032Z,82.35
2023-03-01T05:45:03.807Z,82.12
2023-03-01T05:47:16.446Z,82.59
2023-03-01T05:49:29.160Z,82.50
2023-03-01T05:51:42.570Z,82.70
2023-03-01T05:53:55.266Z,82.75
2023-03-01T05:56:08.114Z,82.35
2023-03-01T05:58:21.191Z,82.61
2023-03-01T06:00:34.594Z,82.90
2023-03-01T06:02:47.197Z,82.45
2023-03-01T06:04:59.855Z,82.92
2023-03-01T06:07:12.671Z,82.50
2023-03-01T06:09:26.965Z,83.18
2023-03-01T06:11:39.655Z,82.81
2023-03-01T06:13:52.326Z,82.80
2023-03-01T06:16:07.421Z,82.53
2023-03-01T06:18:20.005Z,82.87
2023-03-01T06:20:32.550Z,83.40
2023-03-01T06:22:45.881Z,83.46
2023-03-01T06:24:58.381Z,83.25
2023-03-01T06:27:10.918Z,83.19
2023-03-01T06:29:23.610Z,83.42
2023-03-01T06:31:36.167Z,83.02
2023-03-01T06:33:48.782Z,83.02
2023-03-01T06:36:01.357Z,83.65
2023-03-01T06:38:15.868Z,84.07
2023-03-01T06:40:29.052Z,84.04
2023-03-01T06:42:49.449Z,84.16
2023-03-01T06:45:02.669Z,84.52
2023-03-01T06:47:15.254Z,84.94
2023-03-01T06:49:27.935Z,84.92
2023-03-01T06:51:40.433Z,85.53
2023-03-01T06:53:52.935Z,85.74
2023-03-01T06:56:05.588Z,86.11
2023-03-01T06:58:18.175Z,86.44
2023-03-01T07:00:31.351Z,86.60
2023-03-01T07:02:43.952Z,86.57
2023-03-01T07:04:56.497Z,86.45
2023-03-01T07:07:09.595Z,86.61
2023-03-01T07:09:23.785Z,86.70
2023-03-01T07:11:36.315Z,86.96
2023-03-01T07:13:48.864Z,86.61
2023-03-01T07:16:01.481Z,86.45
2023-03-01T07:18:14.012Z,86.25
2023-03-01T07:20:26.856Z,86.36
2023-03-01T07:22:42.420Z,86.28
2023-03-01T07:24:54.959Z,85.66
2023-03-01T07:27:07.465Z,85.69
2023-03-01T07:29:20.241Z,85.49
2023-03-01T07:31:33.260Z,85.13
2023-03-01T07:33:46.064Z,85.19
2023-03-01T07:36:00.116Z,84.98
2023-03-01T07:38:12.796Z,84.70
2023-03-01T07:40:25.290Z,84.51
2023-03-01T07:42:38.147Z,84.31
2023-03-01T07:44:50.754Z,83.92
2023-03-01T07:47:04.788Z,83.82
2023-03-01T07:49:17.391Z,83.22
2023-03-01T07:51:29.898Z,82.65
2023-03-01T07:53:42.444Z,82.25
2023-03-01T07:56:06.753Z,82.04
2023-03-01T07:58:19.267Z,81.76
2023-03-01T08:00:32.486Z,81.25
2023-03-01T08:02:45.043Z,80.64
2023-03-01T08:04:57.688Z,80.04
2023-03-01T08:07:10.261Z,79.43
2023-03-01T08:09:23.332Z,79.05
2023-03-01T08:11:36.149Z,78.43
2023-03-01T08:13:51.538Z,77.15
2023-03-01T08:16:15.992Z,76.58
2023-03-01T08:18:28.625Z,76.85
2023-03-01T08:20:41.254Z,75.90
2023-03-01T08:22:53.795Z,75.32
2023-03-01T08:25:07.584Z,74.30
2023-03-01T08:27:20.107Z,73.08
2023-03-01T08:29:33.851Z,72.31
2023-03-01T08:31:46.537Z,71.53
2023-03-01T08:34:01.946Z,71.10
2023-03-01T08:36:14.494Z,70.93
2023-03-01T08:38:26.992Z,71.14
2023-03-01T08:40:39.483Z,70.29
2023-03-01T08:42:52.085Z,70.00
2023-03-01T08:45:05.239Z,69.54
2023-03-01T08:47:17.804Z,68.74
2023-03-01T08:49:30.353Z,68.93
2023-03-01T08:51:44.420Z,67.30
2023-03-01T08:53:57.088Z,67.46
2023-03-01T08:56:10.578Z,66.44
2023-03-01T08:58:23.147Z,66.20
2023-03-01T09:00:35.744Z,65.83
2023-03-01T09:02:48.325Z,65.71
2023-03-01T09:05:00.976Z,65.55
2023-03-01T09:07:13.657Z,64.16
2023-03-01T09:09:26.370Z,63.94
2023-03-01T09:11:38.948Z,63.01
2023-03-01T09:13:51.883Z,62.84
2023-03-01T09:16:06.835Z,62.02
2023-03-01T09:18:19.490Z,61.82
2023-03-01T09:20:32.998Z,60.67
2023-03-01T09:22:45.617Z,60.34
2023-03-01T09:25:00.130Z,59.58
2023-03-01T09:27:13.863Z,58.95
2023-03-01T09:29:26.952Z,58.00
2023-03-01T09:31:39.750Z,57.03
2023-03-01T09:33:54.809Z,56.60
2023-03-01T09:36:11.867Z,55.60
2023-03-01T09:38:25.944Z,54.71
2023-03-01T09:40:47.987Z,53.05
2023-03-01T09:43:08.576Z,52.67
2023-03-01T09:45:34.727Z,52.31
2023-03-01T09:47:47.457Z,52.39
2023-03-01T09:50:14.227Z,51.53
2023-03-01T09:52:37.239Z,51.59
2023-03-01T09:54:56.335Z,50.33
2023-03-01T09:57:16.529Z,50.00
2023-03-01T09:59:38.948Z,49.34
2023-03-01T10:02:10.312Z,49.38
2023-03-01T10:04:40.822Z,49.07
2023-03-01T10:07:22.600Z,48.28
2023-03-01T10:09:38.278Z,48.79
2023-03-01T10:11:54.990Z,48.09
2023-03-01T10:14:25.717Z,47.62
2023-03-01T10:17:34.370Z,47.49
2023-03-01T10:19:48.008Z,47.70
2023-03-01T10:22:22.934Z,47.14
2023-03-01T10:24:37.377Z,46.69
2023-03-01T10:26:57.977Z,46.36
2023-03-01T10:29:15.511Z,45.88
2023-03-01T10:31:38.276Z,46.00
2023-03-01T10:33:55.771Z,45.42
2023-03-01T10:36:08.587Z,45.29
2023-03-01T10:38:22.362Z,45.10
2023-03-01T10:40:36.535Z,43.97
2023-03-01T10:42:50.456Z,44.65
2023-03-01T10:45:31.124Z,44.42
2023-03-01T10:47:43.729Z,44.09
2023-03-01T10:50:02.512Z,43.74
2023-03-01T10:52:25.543Z,43.23
2023-03-01T10:54:38.574Z,43.53
2023-03-01T10:56:54.687Z,43.13
2023-03-01T10:59:22.617Z,42.94
2023-03-01T11:01:36.949Z,43.09
2023-03-01T11:04:09.473Z,42.85
2023-03-01T11:06:23.098Z,42.68
2023-03-01T11:08:44.618Z,42.03
2023-03-01T11:11:26.136Z,42.04
2023-03-01T11:13:48.923Z,41.34
2023-03-01T11:16:05.007Z,40.92
2023-03-01T11:18:31.079Z,40.39
2023-03-01T11:20:53.756Z,40.01
2023-03-01T11:23:15.078Z,39.71
2023-03-01T11:25:33.878Z,39.73
2023-03-01T11:27:47.748Z,39.58
2023-03-01T11:30:05.928Z,39.22
2023-03-01T11:32:22.072Z,39.33
2023-03-01T11:34:44.626Z,38.09
2023-03-01T11:37:02.589Z,39.03
2023-03-01T11:39:39.378Z,38.37
2023-03-01T11:42:18.851Z,38.62
2023-03-01T11:44:37.179Z,37.99
2023-03-01T11:47:26.756Z,38.47
2023-03-01T11:49:57.740Z,38.31
2023-03-01T11:52:31.900Z,36.81
2023-03-01T11:55:17.476Z,36.96
2023-03-01T11:57:49.693Z,36.19
2023-03-01T12:00:17.373Z,36.04
2023-03-01T12:02:38.784Z,36.53
2023-03-01T12:05:19.754Z,36.43
2023-03-01T12:07:45.488Z,35.99
2023-03-01T12:10:22.936Z,35.18
2023-03-01T12:12:54.149Z,35.14
2023-03-01T12:15:20.157Z,35.68
2023-03-01T12:17:58.725Z,35.21
2023-03-01T12:20:23.538Z,35.92
2023-03-01T12:22:45.804Z,35.77
2023-03-01T12:25:21.234Z,34.58
2023-03-01T12:28:18.692Z,34.24
2023-03-01T12:31:08.065Z,34.73
2023-03-01T12:33:40.063Z,34.74
2023-03-01T12:36:16.499Z,34.06
2023-03-01T12:38:53.954Z,33.93
2023-03-01T12:41:22.957Z,34.18
2023-03-01T12:43:59.995Z,33.31
2023-03-01T12:46:30.323Z,33.09
2023-03-01T12:49:04.329Z,32.00
2023-03-01T12:51:20.638Z,31.29
2023-03-01T12:53:37.783Z,31.54
2023-03-01T12:55:52.850Z,30.05
2023-03-01T12:58:26.299Z,29.36
2023-03-01T13:00:52.391Z,29.62
2023-03-01T13:03:24.098Z,29.52
2023-03-01T13:06:08.244Z,29.89
2023-03-01T13:08:29.464Z,30.50
2023-03-01T13:10:52.963Z,31.14
2023-03-01T13:13:11.527Z,31.15
2023-03-01T13:15:28.401Z,30.75
2023-03-01T13:17:45.502Z,30.06
2023-03-01T13:19:59.874Z,29.53
2023-03-01T13:22:32.554Z,29.58
2023-03-01T13:24:45.079Z,29.62
2023-03-01T13:27:06.760Z,29.61
2023-03-01T13:29:27.893Z,30.58
2023-03-01T13:31:40.460Z,31.42
2023-03-01T13:33:57.198Z,31.56
2023-03-01T13:36:11.958Z,31.37
2023-03-01T13:38:58.178Z,31.33
2023-03-01T13:41:10.900Z,30.91
2023-03-01T13:43:36.324Z,30.75
2023-03-01T13:45:49.765Z,30.64
2023-03-01T13:48:16.103Z,30.63
2023-03-01T13:50:33.709Z,30.96
2023-03-01T13:52:51.537Z,30.69
2023-03-01T13:55:08.067Z,30.54
2023-03-01T13:57:25.802Z,30.70
2023-03-01T13:59:48.412Z,30.65
2023-03-01T14:02:01.834Z,30.82
2023-03-01T14:04:32.273Z,30.31
2023-03-01T14:06:44.893Z,30.89
2023-03-01T14:09:21.507Z,31.27
2023-03-01T14:11:40.230Z,30.77
2023-03-01T14:14:19.045Z,31.07
2023-03-01T14:16:50.554Z,30.80
2023-03-01T14:19:31.158Z,31.00
2023-03-01T14:21:46.059Z,31.15
2023-03-01T14:23:59.782Z,31.56
2023-03-01T14:26:13.128Z,31.85
2023-03-01T14:28:38.301Z,32.14
2023-03-01T14:30:53.379Z,31.90
2023-03-01T14:33:18.618Z,32.43
2023-03-01T14:35:34.903Z,32.54
2023-03-01T14:37:47.576Z,32.75
2023-03-01T14:40:02.524Z,33.00
2023-03-01T14:42:16.342Z,33.47
2023-03-01T14:44:30.818Z,33.75
2023-03-01T14:46:46.002Z,33.03
2023-03-01T14:49:11.702Z,32.90
2023-03-01T14:51:24.950Z,33.07
2023-03-01T14:53:49.289Z,33.92
2023-03-01T14:56:03.634Z,34.47
2023-03-01T14:58:20.089Z,34.70
2023-03-01T15:00:35.058Z,35.09
2023-03-01T15:02:53.825Z,35.33
2023-03-01T15:05:08.906Z,35.40
2023-03-01T15:07:49.783Z,35.70
2023-03-01T15:10:04.998Z,36.24
2023-03-01T15:12:36.761Z,36.53
2023-03-01T15:15:02.524Z,36.59
2023-03-01T15:17:29.077Z,36.89
2023-03-01T15:19:41.626Z,37.20
2023-03-01T15:21:54.826Z,37.46
2023-03-01T15:24:26.720Z,37.73
2023-03-01T15:26:43.432Z,38.11
2023-03-01T15:28:59.319Z,38.09
2023-03-01T15:31:23.244Z,38.23
2023-03-01T15:33:37.903Z,38.65
2023-03-01T15:35:54.711Z,38.73
2023-03-01T15:38:26.243Z,38.94
2023-03-01T15:40:50.809Z,38.93
2023-03-01T15:43:05.931Z,39.21
2023-03-01T15:45:21.445Z,39.33
2023-03-01T15:47:36.409Z,39.67
2023-03-01T15:49:55.288Z,39.62
2023-03-01T15:52:22.725Z,39.65
2023-03-01T15:54:35.274Z,39.97
2023-03-01T15:56:48.153Z,40.11
2023-03-01T15:59:03.140Z,40.22
2023-03-01T16:01:20.434Z,40.37
2023-03-01T16:03:33.054Z,40.76
2023-03-01T16:05:45.597Z,40.82
2023-03-01T16:07:58.564Z,41.10
2023-03-01T16:10:11.244Z,41.40
2023-03-01T16:12:25.134Z,41.66
2023-03-01T16:14:38.054Z,41.88
2023-03-01T16:16:50.820Z,42.21
2023-03-01T16:19:03.389Z,42.54
2023-03-01T16:21:24.694Z,42.80
2023-03-01T16:23:37.604Z,42.97
2023-03-01T16:25:50.243Z,43.29
2023-03-01T16:28:05.988Z,43.55
2023-03-01T16:30:21.393Z,43.65
2023-03-01T16:32:33.983Z,44.05
2023-03-01T16:34:50.071Z,44.34
2023-03-01T16:37:02.617Z,44.59
2023-03-01T16:39:15.109Z,44.82
2023-03-01T16:41:28.182Z,45.29
2023-03-01T16:43:42.023Z,45.50
2023-03-01T16:45:54.682Z,45.64
2023-03-01T16:48:07.645Z,45.94
2023-03-01T16:50:20.565Z,46.23
2023-03-01T16:52:34.763Z,46.40
2023-03-01T16:54:48.018Z,46.75
2023-03-01T16:57:00.570Z,47.16
2023-03-01T16:59:13.180Z,47.52
2023-03-01T17:01:26.891Z,47.82
2023-03-01T17:03:41.055Z,48.01
2023-03-01T17:05:53.698Z,48.22
2023-03-01T17:08:06.361Z,48.61
2023-03-01T17:10:18.959Z,48.74
2023-03-01T17:12:32.912Z,49.11
2023-03-01T17:14:45.448Z,49.43
2023-03-01T17:17:00.642Z,49.66
2023-03-01T17:19:18.409Z,50.10
2023-03-01T17:21:31.775Z,50.09
2023-03-01T17:23:46.218Z,50.40
2023-03-01T17:25:59.468Z,50.59
2023-03-01T17:28:13.130Z,50.88
2023-03-01T17:30:25.820Z,51.06
2023-03-01T17:32:38.508Z,51.55
2023-03-01T17:34:51.157Z,51.62
2023-03-01T17:37:03.994Z,52.23
2023-03-01T17:39:17.234Z,52.24
2023-03-01T17:41:30.144Z,52.71
2023-03-01T17:43:43.158Z,53.13
2023-03-01T17:45:56.975Z,53.47
2023-03-01T17:48:10.583Z,54.06
2023-03-01T17:50:23.153Z,54.25
2023-03-01T17:52:35.718Z,54.60
2023-03-01T17:54:48.409Z,54.86
2023-03-01T17:57:01.081Z,54.99
2023-03-01T17:59:13.653Z,55.33
2023-03-01T18:01:26.441Z,55.29
2023-03-01T18:03:40.325Z,55.52
2023-03-01T18:05:52.937Z,55.75
2023-03-01T18:08:05.729Z,55.91
2023-03-01T18:10:20.633Z,55.91
2023-03-01T18:12:33.224Z,56.10
2023-03-01T18:14:45.718Z,56.46
2023-03-01T18:16:58.353Z,56.87
2023-03-01T18:19:12.210Z,57.14
2023-03-01T18:21:25.168Z,57.32
2023-03-01T18:23:38.016Z,57.60
2023-03-01T18:25:51.612Z,57.77
2023-03-01T18:28:04.458Z,57.89
2023-03-01T18:30:17.211Z,58.05
2023-03-01T18:32:29.901Z,58.24
2023-03-01T18:34:42.816Z,58.39
2023-03-01T18:37:08.760Z,58.45
2023-03-01T18:39:23.230Z,58.54
2023-03-01T18:41:36.336Z,58.71
2023-03-01T18:43:48.866Z,59.03
2023-03-01T18:46:01.628Z,59.28
2023-03-01T18:48:15.376Z,59.52
2023-03-01T18:50:28.012Z,59.94
2023-03-01T18:52:40.618Z,60.15
2023-03-01T18:54:53.107Z,60.43
2023-03-01T18:57:05.717Z,60.61
2023-03-01T18:59:18.283Z,60.66
2023-03-01T19:01:34.666Z,61.19
2023-03-01T19:03:49.236Z,61.24
2023-03-01T19:06:02.266Z,61.30
2023-03-01T19:08:14.866Z,61.31
2023-03-01T19:10:28.233Z,61.26
2023-03-01T19:12:40.868Z,61.68
2023-03-01T19:14:53.962Z,61.98
2023-03-01T19:17:06.605Z,61.92
2023-03-01T19:19:19.103Z,61.98
2023-03-01T19:21:32.955Z,62.40
2023-03-01T19:23:45.986Z,62.47
2023-03-01T19:26:03.008Z,62.61
2023-03-01T19:28:15.716Z,63.03
2023-03-01T19:30:28.403Z,63.05
2023-03-01T19:32:40.930Z,63.39
2023-03-01T19:34:53.464Z,63.55
2023-03-01T19:37:06.150Z,63.74
2023-03-01T19:39:18.885Z,63.98
2023-03-01T19:41:31.751Z,64.38
2023-03-01T19:43:46.259Z,64.13
2023-03-01T19:45:59.051Z,64.55
2023-03-01T19:48:12.211Z,64.71
2023-03-01T19:50:24.937Z,64.86
2023-03-01T19:52:37.528Z,65.18
2023-03-01T19:54:51.925Z,65.25
2023-03-01T19:57:06.451Z,64.88
2023-03-01T19:59:24.475Z,65.08
2023-03-01T20:01:37.721Z,65.69
2023-03-01T20:03:50.441Z,65.02
2023-03-01T20:06:14.865Z,65.29
2023-03-01T20:08:30.281Z,65.69
2023-03-01T20:10:43.485Z,65.62
2023-03-01T20:12:56.346Z,65.78
2023-03-01T20:15:09.810Z,66.05
2023-03-01T20:17:23.275Z,66.35
2023-03-01T20:19:36.035Z,66.46
2023-03-01T20:21:48.702Z,66.73
2023-03-01T20:24:02.035Z,66.40
2023-03-01T20:26:19.135Z,66.88
2023-03-01T20:28:32.228Z,67.18
2023-03-01T20:30:45.723Z,67.59
2023-03-01T20:32:58.342Z,68.03
2023-03-01T20:35:11.969Z,68.11
2023-03-01T20:37:24.644Z,67.61
2023-03-01T20:39:37.298Z,68.57
2023-03-01T20:41:49.862Z,68.77
2023-03-01T20:44:04.406Z,69.02
2023-03-01T20:46:17.021Z,68.85
2023-03-01T20:48:29.632Z,68.83
2023-03-01T20:50:42.345Z,69.19
2023-03-01T20:52:54.952Z,69.04
2023-03-01T20:55:08.347Z,69.19
2023-03-01T20:57:20.982Z,69.46
2023-03-01T20:59:34.943Z,69.39
2023-03-01T21:01:47.860Z,69.54
2023-03-01T21:04:00.710Z,69.33
2023-03-01T21:06:13.781Z,70.02
2023-03-01T21:08:26.437Z,70.16
2023-03-01T21:10:38.972Z,70.10
2023-03-01T21:12:51.494Z,69.80
2023-03-01T21:15:04.901Z,70.19
2023-03-01T21:17:17.581Z,70.23
2023-03-01T21:19:30.282Z,70.26
2023-03-01T21:21:42.857Z,70.33
2023-03-01T21:23:55.560Z,70.53
2023-03-01T21:26:09.408Z,70.94
2023-03-01T21:28:22.982Z,71.04
2023-03-01T21:30:35.650Z,70.92
2023-03-01T21:32:48.244Z,71.38
2023-03-01T21:35:00.858Z,71.06
2023-03-01T21:37:13.649Z,71.36
2023-03-01T21:39:28.897Z,71.46
2023-03-01T21:41:41.680Z,71.46
2023-03-01T21:44:00.525Z,71.61
2023-03-01T21:46:17.333Z,71.55
2023-03-01T21:48:30.213Z,71.88
2023-03-01T21:50:42.818Z,71.79
2023-03-01T21:52:55.348Z,72.26
2023-03-01T21:55:09.067Z,72.05
2023-03-01T21:57:21.748Z,72.25
2023-03-01T21:59:34.280Z,72.37
2023-03-01T22:01:47.579Z,72.34
2023-03-01T22:04:01.156Z,72.65
2023-03-01T22:06:26.281Z,72.83
2023-03-01T22:08:38.835Z,72.86
2023-03-01T22:10:52.107Z,73.07
2023-03-01T22:13:04.708Z,73.15
2023-03-01T22:15:17.312Z,73.01
2023-03-01T22:17:29.886Z,73.16
2023-03-01T22:19:42.421Z,73.33
2023-03-01T22:21:54.961Z,73.33
2023-03-01T22:24:08.405Z,73.24
2023-03-01T22:26:27.603Z,73.31
2023-03-01T22:28:40.262Z,73.36
2023-03-01T22:30:52.985Z,73.63
2023-03-01T22:33:05.632Z,73.62
2023-03-01T22:35:18.394Z,73.74
2023-03-01T22:37:31.047Z,73.72
2023-03-01T22:39:43.783Z,73.72
2023-03-01T22:41:56.400Z,74.03
2023-03-01T22:44:09.049Z,74.03
2023-03-01T22:46:22.011Z,73.93
2023-03-01T22:48:34.658Z,73.97
2023-03-01T22:50:48.661Z,74.17
2023-03-01T22:53:01.303Z,74.36
2023-03-01T22:55:13.968Z,74.61
2023-03-01T22:57:26.522Z,74.45
2023-03-01T22:59:39.181Z,74.77
2023-03-01T23:01:53.306Z,74.65
2023-03-01T23:04:06.368Z,74.60
2023-03-01T23:06:20.972Z,74.86
2023-03-01T23:08:33.683Z,74.85
2023-03-01T23:10:46.275Z,74.92
2023-03-01T23:12:58.871Z,75.33
2023-03-01T23:15:12.131Z,75.36
2023-03-01T23:17:25.040Z,75.29
2023-03-01T23:19:37.656Z,75.32
2023-03-01T23:21:50.582Z,75.35
2023-03-01T23:24:03.493Z,75.43
2023-03-01T23:26:17.376Z,75.41
2023-03-01T23:28:30.107Z,75.39
2023-03-01T23:30:45.141Z,75.78
2023-03-01T23:33:00.276Z,76.18
2023-03-01T23:35:12.834Z,76.11
2023-03-01T23:37:30.016Z,76.35
2023-03-01T23:39:42.655Z,76.26
2023-03-01T23:41:55.989Z,76.67
2023-03-01T23:44:12.477Z,76.48
2023-03-01T23:46:28.211Z,76.74
2023-03-01T23:48:42.411Z,76.91
2023-03-01T23:50:55.071Z,76.88
2023-03-01T23:53:14.350Z,76.83
2023-03-01T23:55:27.884Z,76.93
2023-03-01T23:57:40.770Z,76.75
2023-03-01T23:59:53.332Z,77.24
